Time;durP1;ratioP1;P1;durP2;ratioP2;P2;SDS_P1;SDS_P2;PMS_P1;PMS_P2;Temp;Humidity;BMP_temperature;BMP_pressure;BME280_temperature;BME280_humidity;BME280_pressure;Samples;Min_cycle;Max_cycle;Signal;HPM_P1;HPM_P2
2022/10/30 00:00:44;;;;;;;0.60;0.57;;;;;;;16.75;67.37;101181.25;5136372;28;20040;-83
2022/10/30 00:03:16;;;;;;;11.95;1.45;;;;;;;16.75;67.52;101183.91;5113269;28;20035;-85
2022/10/30 00:05:49;;;;;;;1.15;1.15;;;;;;;16.74;67.51;101189.25;5103444;29;20059;-85
2022/10/30 00:08:21;;;;;;;0.75;0.75;;;;;;;16.71;67.61;101182.31;5138677;28;20040;-85
2022/10/30 00:10:52;;;;;;;3.53;1.27;;;;;;;16.67;67.72;101186.03;5102543;29;20031;-86
2022/10/30 00:13:25;;;;;;;0.90;0.90;;;;;;;16.70;67.39;101185.03;5103113;29;20044;-85
2022/10/30 00:15:56;;;;;;;1.92;0.55;;;;;;;16.71;67.32;101192.06;5106481;29;20035;-84
2022/10/30 00:18:26;;;;;;;1.95;1.25;;;;;;;16.63;67.71;101187.97;5107788;29;20521;-84
2022/10/30 00:21:05;;;;;;;1.42;1.33;;;;;;;16.70;67.13;101191.19;5124838;29;20103;-84
2022/10/30 00:23:43;;;;;;;1.20;0.90;;;;;;;16.66;67.52;101190.47;5121978;28;20032;-84
2022/10/30 00:26:15;;;;;;;1.27;1.17;;;;;;;16.67;67.29;101196.63;5118740;29;20047;-86
2022/10/30 00:28:50;;;;;;;1.27;0.73;;;;;;;16.68;67.35;101198.38;5134849;28;20048;-86
2022/10/30 00:31:21;;;;;;;5.10;2.70;;;;;;;16.67;67.20;101188.69;5134481;28;20115;-84
2022/10/30 00:33:53;;;;;;;2.85;1.95;;;;;;;16.60;67.47;101185.44;5102244;28;20828;-84
2022/10/30 00:36:24;;;;;;;2.03;1.50;;;;;;;16.62;67.07;101186.25;5121527;29;20039;-84
2022/10/30 00:38:55;;;;;;;0.85;0.85;;;;;;;16.59;67.50;101182.88;5085794;29;20056;-86
2022/10/30 00:41:25;;;;;;;0.75;0.75;;;;;;;16.47;68.03;101186.94;5101865;29;20106;-86
2022/10/30 00:43:56;;;;;;;0.40;0.40;;;;;;;16.53;67.69;101184.84;5119928;28;20075;-84
2022/10/30 00:46:29;;;;;;;0.93;0.93;;;;;;;16.51;67.42;101177.91;5120191;28;20042;-84
2022/10/30 00:49:15;;;;;;;4.10;1.92;;;;;;;16.48;67.71;101188.66;5119326;28;20044;-84
2022/10/30 00:51:52;;;;;;;4.97;1.42;;;;;;;16.41;68.13;101176.59;5142033;28;20091;-84
2022/10/30 00:54:23;;;;;;;15.63;1.45;;;;;;;16.46;67.55;101183.41;5131029;28;20028;-85
2022/10/30 00:56:56;;;;;;;0.60;0.60;;;;;;;16.48;67.51;101180.72;5101340;28;20459;-83
2022/10/30 00:59:31;;;;;;;0.82;0.82;;;;;;;16.45;67.49;101180.84;5133573;28;20035;-84
2022/10/30 01:02:04;;;;;;;7.97;3.25;;;;;;;16.41;67.47;101180.13;5075220;28;20040;-83
2022/10/30 01:04:37;;;;;;;5.25;2.08;;;;;;;16.39;67.79;101186.41;5106107;29;20028;-84
2022/10/30 01:07:13;;;;;;;;;;;;;;;16.35;67.59;101181.25;5072979;28;20083;-86
2022/10/30 01:09:45;;;;;;;1.75;1.52;;;;;;;16.31;68.12;101174.38;5137958;28;19919;-83
2022/10/30 01:12:16;;;;;;;1.80;1.57;;;;;;;16.28;67.97;101174.50;5087178;29;20131;-86
2022/10/30 01:14:53;;;;;;;4.78;2.72;;;;;;;16.23;68.14;101173.84;5124314;28;20718;-85
2022/10/30 01:17:45;;;;;;;1.70;1.60;;;;;;;16.23;67.63;101173.84;5122789;28;20090;-85
2022/10/30 01:20:36;;;;;;;1.85;1.50;;;;;;;16.17;67.98;101176.75;5120514;28;20031;-84
2022/10/30 01:23:55;;;;;;;3.97;2.42;;;;;;;16.15;67.98;101183.91;5123501;28;20040;-85
2022/10/30 01:27:07;;;;;;;0.43;0.43;;;;;;;16.14;68.01;101171.59;5063405;29;20183;-86
2022/10/30 01:30:00;;;;;;;1.77;1.45;;;;;;;16.18;67.86;101175.81;5087303;29;20344;-84
2022/10/30 01:32:40;;;;;;;0.70;0.70;;;;;;;16.21;67.42;101167.75;5088281;29;20130;-85
2022/10/30 01:35:32;;;;;;;0.65;0.65;;;;;;;16.13;67.82;101169.88;5077214;29;20731;-83
2022/10/30 01:38:11;;;;;;;3.28;1.52;;;;;;;16.08;68.10;101169.19;5117117;28;20035;-84
2022/10/30 01:41:02;;;;;;;3.63;1.63;;;;;;;16.04;68.24;101163.19;5105048;29;20040;-85
2022/10/30 01:43:58;;;;;;;1.77;1.67;;;;;;;16.07;67.82;101170.16;5102519;29;20051;-84
2022/10/30 01:46:50;;;;;;;1.17;0.77;;;;;;;16.00;68.24;101165.09;5105708;29;20218;-84
2022/10/30 01:49:32;;;;;;;2.45;1.45;;;;;;;15.99;68.45;101160.72;5117246;28;20050;-85
2022/10/30 01:52:11;;;;;;;1.27;1.20;;;;;;;16.07;67.89;101160.41;5132437;28;20032;-84
2022/10/30 01:54:48;;;;;;;1.42;1.33;;;;;;;16.06;67.85;101166.63;5123752;29;20138;-84
2022/10/30 01:57:41;;;;;;;0.75;0.75;;;;;;;16.08;67.90;101155.97;5111271;28;20035;-86
2022/10/30 02:00:14;;;;;;;8.83;2.23;;;;;;;16.05;67.76;101152.53;5118530;28;20040;-85
2022/10/30 02:02:50;;;;;;;0.50;0.50;;;;;;;16.03;67.88;101153.53;5105749;28;20809;-83
2022/10/30 02:05:31;;;;;;;5.68;2.97;;;;;;;16.02;67.99;101149.19;5074231;29;20055;-85
2022/10/30 02:08:02;;;;;;;0.65;0.65;;;;;;;15.96;68.16;101155.59;5112267;28;20046;-84
2022/10/30 02:10:36;;;;;;;0.70;0.70;;;;;;;15.95;67.79;101151.22;5115099;28;20144;-86
2022/10/30 02:13:08;;;;;;;0.40;0.40;;;;;;;15.92;67.86;101156.63;5116282;29;20036;-84
2022/10/30 02:15:40;;;;;;;0.98;0.98;;;;;;;15.89;68.29;101149.69;5076775;29;20040;-85
2022/10/30 02:18:11;;;;;;;1.25;1.15;;;;;;;15.88;68.22;101155.06;5101258;28;20058;-84
2022/10/30 02:20:42;;;;;;;0.45;0.45;;;;;;;15.91;68.12;101157.53;5114508;28;20036;-84
2022/10/30 02:23:17;;;;;;;0.40;0.40;;;;;;;15.87;68.40;101164.75;5117282;28;20051;-84
2022/10/30 02:25:48;;;;;;;6.55;1.80;;;;;;;15.88;68.05;101155.91;5121220;28;20044;-84
2022/10/30 02:28:18;;;;;;;4.82;2.55;;;;;;;15.88;68.05;101160.34;5100895;29;20071;-84
2022/10/30 02:30:52;;;;;;;0.50;0.50;;;;;;;15.87;67.96;101155.97;5128585;28;20117;-85
2022/10/30 02:33:23;;;;;;;0.70;0.70;;;;;;;15.85;68.15;101160.47;5086290;29;21281;-85
2022/10/30 02:35:53;;;;;;;0.45;0.45;;;;;;;15.85;68.17;101155.16;5135712;28;20031;-84
2022/10/30 02:38:24;;;;;;;0.73;0.73;;;;;;;15.90;68.00;101158.50;5109146;29;20047;-85
2022/10/30 02:40:57;;;;;;;1.95;1.63;;;;;;;15.85;67.90;101152.53;5123723;29;20118;-84
2022/10/30 02:43:30;;;;;;;0.50;0.50;;;;;;;15.92;67.61;101161.91;5118546;29;20048;-84
2022/10/30 02:46:01;;;;;;;0.75;0.75;;;;;;;15.86;68.03;101162.19;5100875;29;20099;-85
2022/10/30 02:48:32;;;;;;;1.92;1.55;;;;;;;15.71;68.52;101164.53;5108073;29;20063;-86
2022/10/30 02:51:03;;;;;;;0.45;0.45;;;;;;;15.80;68.10;101165.91;5110482;29;20061;-86
2022/10/30 02:53:34;;;;;;;0.88;0.88;;;;;;;15.77;68.07;101157.25;5128272;28;20054;-86
2022/10/30 02:56:11;;;;;;;1.20;0.60;;;;;;;15.70;68.49;101159.31;5085396;29;20091;-84
2022/10/30 02:58:42;;;;;;;0.93;0.93;;;;;;;15.73;68.20;101153.88;5129384;28;20048;-85
2022/10/30 03:01:18;;;;;;;8.88;2.80;;;;;;;15.76;68.17;101150.22;5134167;28;20038;-85
2022/10/30 03:03:49;;;;;;;0.68;0.68;;;;;;;15.79;68.38;101160.69;5131471;28;20078;-86
2022/10/30 03:06:22;;;;;;;0.60;0.60;;;;;;;15.73;68.08;101172.38;5114667;28;20023;-86
2022/10/30 03:08:52;;;;;;;;;;;;;;;15.71;68.05;101171.59;5121709;28;20046;-84
2022/10/30 03:11:26;;;;;;;1.25;1.15;;;;;;;15.69;68.00;101160.22;5106719;29;20136;-84
2022/10/30 03:13:56;;;;;;;1.58;1.48;;;;;;;15.69;68.03;101173.44;5092872;29;20060;-86
2022/10/30 03:16:30;;;;;;;0.98;0.98;;;;;;;15.70;67.99;101168.09;5112896;29;20050;-86
2022/10/30 03:19:01;;;;;;;0.75;0.75;;;;;;;15.68;67.96;101158.50;5110982;29;20063;-84
2022/10/30 03:21:32;;;;;;;0.70;0.70;;;;;;;15.67;67.84;101170.00;5123135;29;20030;-84
2022/10/30 03:24:03;;;;;;;0.55;0.55;;;;;;;15.60;68.50;101161.44;5108919;29;20047;-85
2022/10/30 03:26:45;;;;;;;0.90;0.90;;;;;;;15.60;68.04;101166.75;5110059;28;20083;-83
2022/10/30 03:29:16;;;;;;;0.88;0.82;;;;;;;15.60;68.04;101166.75;5107295;28;20032;-84
2022/10/30 03:31:51;;;;;;;1.05;1.00;;;;;;;15.54;68.22;101157.28;5122637;28;20143;-84
2022/10/30 03:34:22;;;;;;;1.63;1.52;;;;;;;15.59;67.83;101159.72;5110498;29;20059;-84
2022/10/30 03:36:52;;;;;;;1.40;1.30;;;;;;;15.57;67.99;101166.88;5123390;28;20032;-85
2022/10/30 03:39:23;;;;;;;0.57;0.57;;;;;;;15.56;67.91;101175.75;5126459;28;20016;-85
2022/10/30 03:41:56;;;;;;;9.07;1.75;;;;;;;15.57;67.72;101172.19;5135894;28;20130;-85
2022/10/30 03:44:27;;;;;;;0.80;0.80;;;;;;;15.53;67.87;101178.50;5114409;29;20043;-86
2022/10/30 03:46:58;;;;;;;1.45;1.35;;;;;;;15.49;68.13;101182.22;5132890;28;20060;-85
2022/10/30 03:49:30;;;;;;;1.02;0.98;;;;;;;15.45;67.92;101180.59;5128422;28;20026;-83
2022/10/30 03:52:01;;;;;;;2.03;1.85;;;;;;;15.40;67.99;101189.59;5097964;28;20061;-85
2022/10/30 03:54:32;;;;;;;0.98;0.98;;;;;;;15.40;67.95;101184.31;5117715;29;20027;-85
2022/10/30 03:57:02;;;;;;;0.98;0.98;;;;;;;15.42;67.65;101186.88;5119663;28;20059;-84
2022/10/30 03:59:35;;;;;;;0.85;0.85;;;;;;;15.38;67.96;101188.78;5085229;29;20035;-83
2022/10/30 04:02:06;;;;;;;1.15;1.15;;;;;;;15.40;67.71;101192.22;5102366;29;20044;-85
2022/10/30 04:04:37;;;;;;;1.00;0.93;;;;;;;15.37;67.61;101192.34;5074440;29;20035;-83
2022/10/30 04:07:12;;;;;;;1.05;1.05;;;;;;;15.35;67.79;101196.81;5101032;29;20078;-84
2022/10/30 04:10:06;;;;;;;1.40;1.17;;;;;;;15.34;67.65;101187.16;5088407;29;20055;-83
2022/10/30 04:12:39;;;;;;;0.80;0.80;;;;;;;15.37;67.33;101187.06;5103053;28;20048;-84
2022/10/30 04:15:09;;;;;;;0.57;0.57;;;;;;;15.35;67.48;101194.19;5102242;29;20036;-85
2022/10/30 04:17:47;;;;;;;0.50;0.50;;;;;;;15.30;67.81;101203.19;5104492;29;20044;-84
2022/10/30 04:20:20;;;;;;;0.40;0.40;;;;;;;15.33;67.35;101203.94;5133654;28;20036;-83
2022/10/30 04:22:59;;;;;;;1.70;1.55;;;;;;;15.30;67.21;101200.56;5104307;29;20079;-84
2022/10/30 04:25:31;;;;;;;1.05;0.98;;;;;;;15.22;67.62;101192.94;5103424;29;20043;-84
2022/10/30 04:28:02;;;;;;;1.52;1.33;;;;;;;15.24;67.08;101194.59;5102183;29;20107;-84
2022/10/30 04:30:35;;;;;;;1.75;1.40;;;;;;;15.22;67.30;101188.50;5120486;29;20110;-86
2022/10/30 04:33:11;;;;;;;1.15;1.13;;;;;;;15.19;67.37;101182.47;5071262;29;20044;-83
2022/10/30 04:35:42;;;;;;;0.47;0.47;;;;;;;15.20;67.19;101189.50;5122667;29;20028;-85
2022/10/30 04:38:14;;;;;;;0.60;0.60;;;;;;;15.16;67.21;101191.41;5102358;29;20566;-86
2022/10/30 04:40:45;;;;;;;1.52;1.42;;;;;;;15.15;67.15;101178.25;5108483;28;20055;-83
2022/10/30 04:43:15;;;;;;;0.80;0.80;;;;;;;15.15;67.05;101186.19;5141479;28;20039;-85
2022/10/30 04:45:46;;;;;;;6.22;1.40;;;;;;;15.08;67.36;101186.41;5126354;29;20111;-83
2022/10/30 04:48:17;;;;;;;1.30;0.93;;;;;;;15.06;67.19;101185.63;5118485;28;20036;-84
2022/10/30 04:50:48;;;;;;;1.45;0.60;;;;;;;15.06;67.43;101182.97;5135129;28;20043;-84
2022/10/30 04:53:19;;;;;;;0.80;0.80;;;;;;;15.05;67.28;101183.88;5119463;28;20036;-83
2022/10/30 04:55:54;;;;;;;0.55;0.45;;;;;;;15.01;67.34;101173.50;5108223;28;20491;-84
2022/10/30 04:58:24;;;;;;;0.77;0.70;;;;;;;14.97;67.37;101170.13;5105978;28;20036;-84
2022/10/30 05:01:00;;;;;;;3.03;1.38;;;;;;;14.98;67.06;101165.66;5117342;28;20662;-84
2022/10/30 05:03:34;;;;;;;1.13;1.05;;;;;;;14.93;66.99;101160.56;5107031;28;20047;-85
2022/10/30 05:06:23;;;;;;;0.65;0.65;;;;;;;14.91;67.32;101165.91;5108170;29;20043;-84
2022/10/30 05:08:54;;;;;;;0.90;0.90;;;;;;;14.94;67.08;101162.28;5119361;28;20039;-84
2022/10/30 05:11:25;;;;;;;5.72;1.95;;;;;;;14.92;67.17;101167.66;5104056;29;20036;-86
2022/10/30 05:13:55;;;;;;;2.33;1.25;;;;;;;14.89;67.04;101159.81;5120003;28;20043;-84
2022/10/30 05:16:26;;;;;;;1.10;1.10;;;;;;;14.84;67.17;101167.06;5120766;28;20085;-84
2022/10/30 05:18:58;;;;;;;1.73;1.08;;;;;;;14.84;66.94;101166.19;5107748;29;20039;-84
2022/10/30 05:21:28;;;;;;;1.55;0.85;;;;;;;14.76;67.33;101161.22;5101538;28;20035;-84
2022/10/30 05:23:59;;;;;;;2.72;1.10;;;;;;;14.74;67.08;101155.13;5075500;29;20036;-84
2022/10/30 05:26:30;;;;;;;0.52;0.52;;;;;;;14.73;66.90;101153.41;5107065;29;20031;-84
2022/10/30 05:29:01;;;;;;;0.75;0.73;;;;;;;14.68;67.23;101152.72;5120150;28;20091;-83
2022/10/30 05:31:33;;;;;;;1.50;1.40;;;;;;;14.68;66.96;101153.56;5104075;29;20140;-86
2022/10/30 05:34:08;;;;;;;1.20;1.10;;;;;;;14.69;67.05;101144.72;5116365;28;20031;-84
2022/10/30 05:36:39;;;;;;;1.23;1.13;;;;;;;14.66;67.09;101144.88;5100077;28;20043;-83
2022/10/30 05:39:09;;;;;;;1.20;0.70;;;;;;;14.61;67.39;101144.13;5113675;28;20023;-82
2022/10/30 05:41:40;;;;;;;0.50;0.50;;;;;;;14.54;67.09;101145.28;5119108;28;20078;-82
2022/10/30 05:44:10;;;;;;;1.05;1.02;;;;;;;14.49;67.62;101150.72;5103787;28;20036;-83
2022/10/30 05:46:41;;;;;;;2.22;2.03;;;;;;;14.43;68.04;101170.28;5095443;28;20031;-84
2022/10/30 05:49:14;;;;;;;1.17;1.10;;;;;;;14.47;67.71;101163.09;5108638;29;20024;-82
2022/10/30 05:51:45;;;;;;;1.42;1.33;;;;;;;14.43;67.70;101161.50;5088883;29;20046;-82
2022/10/30 05:54:15;;;;;;;2.33;1.63;;;;;;;14.44;67.82;101164.09;5119786;29;20119;-80
2022/10/30 05:56:49;;;;;;;0.80;0.80;;;;;;;14.48;67.33;101162.19;5119818;28;20581;-84
2022/10/30 05:59:19;;;;;;;1.25;1.15;;;;;;;14.47;67.48;101166.63;5103398;29;20031;-80
2022/10/30 06:01:50;;;;;;;1.23;0.70;;;;;;;14.45;67.28;101167.59;5098450;29;20566;-84
2022/10/30 06:04:24;;;;;;;1.17;1.08;;;;;;;14.43;67.39;101167.63;5120208;28;20098;-85
2022/10/30 06:06:55;;;;;;;2.60;1.20;;;;;;;14.43;67.52;101159.72;5073323;28;20372;-83
2022/10/30 06:09:25;;;;;;;0.90;0.90;;;;;;;14.36;67.84;101163.50;5105773;29;20034;-80
2022/10/30 06:11:57;;;;;;;1.40;0.77;;;;;;;14.34;67.53;101157.41;5102876;28;20603;-84
2022/10/30 06:14:30;;;;;;;2.63;1.35;;;;;;;14.34;67.63;101162.69;5106124;29;20051;-81
2022/10/30 06:17:01;;;;;;;;;;;;;;;14.34;67.44;101167.97;5071311;28;20770;-83
2022/10/30 06:19:31;;;;;;;5.75;2.50;;;;;;;14.31;67.43;101162.81;5119424;28;19922;-84
2022/10/30 06:22:02;;;;;;;1.42;1.08;;;;;;;14.27;67.51;101164.72;5101865;28;20411;-82
2022/10/30 06:24:33;;;;;;;1.13;0.88;;;;;;;14.21;67.99;101161.41;5122962;28;20034;-83
2022/10/30 06:27:03;;;;;;;0.57;0.57;;;;;;;14.23;67.95;101162.22;5103249;28;20047;-83
2022/10/30 06:29:34;;;;;;;12.05;2.72;;;;;;;14.26;67.95;101168.25;5106349;29;20036;-83
2022/10/30 06:32:04;;;;;;;1.08;0.60;;;;;;;14.19;67.98;101177.31;5074928;28;20051;-84
2022/10/30 06:34:43;;;;;;;2.55;1.67;;;;;;;14.23;67.50;101165.72;5124430;28;20057;-83
2022/10/30 06:37:14;;;;;;;1.05;1.05;;;;;;;14.18;67.61;101170.31;5106663;29;20063;-81
2022/10/30 06:39:45;;;;;;;1.58;1.48;;;;;;;14.21;67.38;101177.25;5112228;29;20035;-84
2022/10/30 06:42:15;;;;;;;1.83;1.13;;;;;;;14.21;67.63;101182.53;5125972;29;20051;-84
2022/10/30 06:44:47;;;;;;;0.70;0.70;;;;;;;14.19;68.01;101184.34;5096296;29;20118;-82
2022/10/30 06:47:18;;;;;;;1.00;0.98;;;;;;;14.15;67.89;101181.84;5108349;29;20036;-82
2022/10/30 06:49:49;;;;;;;0.77;0.77;;;;;;;14.15;67.60;101181.84;5104843;28;20046;-83
2022/10/30 06:52:21;;;;;;;0.65;0.65;;;;;;;14.12;67.66;101179.28;5101311;29;20110;-80
2022/10/30 06:54:52;;;;;;;0.77;0.77;;;;;;;14.11;68.03;101182.84;5107842;29;20585;-82
2022/10/30 06:57:23;;;;;;;1.05;1.05;;;;;;;14.08;67.90;101184.72;5118002;28;20063;-83
2022/10/30 06:59:53;;;;;;;0.40;0.40;;;;;;;14.12;67.44;101171.38;5134798;28;20031;-82
2022/10/30 07:02:27;;;;;;;0.50;0.50;;;;;;;14.14;67.52;101179.22;5131477;28;20145;-85
2022/10/30 07:04:58;;;;;;;1.55;1.45;;;;;;;14.10;67.66;101170.56;5113868;28;20020;-84
2022/10/30 07:07:29;;;;;;;2.08;1.23;;;;;;;14.11;67.66;101172.28;5117789;28;20047;-84
2022/10/30 07:09:59;;;;;;;0.77;0.77;;;;;;;14.10;67.62;101172.34;5120873;29;20032;-83
2022/10/30 07:12:30;;;;;;;0.73;0.73;;;;;;;14.07;67.84;101170.69;5073368;29;20036;-84
2022/10/30 07:15:00;;;;;;;1.50;1.25;;;;;;;14.01;68.18;101165.59;5137983;28;20056;-84
2022/10/30 07:17:31;;;;;;;0.82;0.82;;;;;;;14.05;67.71;101167.22;5123844;29;20075;-85
2022/10/30 07:20:02;;;;;;;0.60;0.60;;;;;;;14.06;67.82;101179.50;5076029;29;20035;-82
2022/10/30 07:22:32;;;;;;;2.05;1.95;;;;;;;14.05;67.53;101177.78;5089290;29;20046;-84
2022/10/30 07:25:06;;;;;;;0.55;0.55;;;;;;;14.03;68.01;101187.53;5072736;29;20036;-82
2022/10/30 07:27:43;;;;;;;0.45;0.45;;;;;;;13.96;68.27;101172.81;5119222;28;20055;-81
2022/10/30 07:30:19;;;;;;;1.52;1.33;;;;;;;14.00;68.07;101171.81;5106075;29;20027;-82
2022/10/30 07:32:57;;;;;;;0.35;0.35;;;;;;;13.94;68.30;101174.63;5117490;28;20727;-83
2022/10/30 07:35:29;;;;;;;1.67;1.50;;;;;;;13.95;68.28;101181.63;5115478;28;20035;-82
2022/10/30 07:38:13;;;;;;;0.77;0.75;;;;;;;13.98;68.37;101173.63;5087618;29;20047;-84
2022/10/30 07:40:43;;;;;;;0.35;0.35;;;;;;;14.03;68.20;101173.47;5120499;28;20104;-82
2022/10/30 07:43:14;;;;;;;1.08;1.08;;;;;;;14.04;68.15;101176.06;5112801;29;20495;-82
2022/10/30 07:45:45;;;;;;;1.13;1.02;;;;;;;13.99;69.74;101176.22;5103971;29;20040;-81
2022/10/30 07:48:18;;;;;;;2.25;1.83;;;;;;;13.88;69.44;101174.84;5128893;28;20075;-81
2022/10/30 07:50:49;;;;;;;2.40;1.80;;;;;;;13.96;68.84;101180.72;5098294;28;20056;-81
2022/10/30 07:53:20;;;;;;;0.80;0.80;;;;;;;13.95;69.15;101182.53;5114583;28;20076;-81
2022/10/30 07:55:53;;;;;;;4.30;2.25;;;;;;;14.08;69.21;101182.09;5072598;29;20031;-81
2022/10/30 07:58:23;;;;;;;1.05;1.05;;;;;;;14.04;69.42;101183.13;5098464;29;20047;-81
2022/10/30 08:00:54;;;;;;;2.47;2.08;;;;;;;14.05;68.78;101179.56;5073136;29;20024;-81
2022/10/30 08:03:24;;;;;;;1.10;1.08;;;;;;;14.03;69.11;101170.84;5130638;28;20368;-84
2022/10/30 08:05:55;;;;;;;2.97;1.25;;;;;;;14.06;69.18;101168.97;5130320;28;20119;-82
2022/10/30 08:08:25;;;;;;;2.17;1.70;;;;;;;14.06;69.29;101173.34;5100908;28;20056;-84
2022/10/30 08:10:56;;;;;;;2.97;2.78;;;;;;;14.07;69.81;101175.09;5122429;28;20028;-82
2022/10/30 08:13:26;;;;;;;1.40;1.33;;;;;;;14.07;69.88;101170.69;5081441;29;20074;-84
2022/10/30 08:15:57;;;;;;;1.52;1.42;;;;;;;14.05;69.80;101166.38;5103882;28;20031;-81
2022/10/30 08:18:27;;;;;;;1.55;1.45;;;;;;;14.06;70.28;101173.34;5113862;28;20121;-82
2022/10/30 08:20:58;;;;;;;1.85;1.20;;;;;;;14.09;71.05;101173.25;5120459;28;20032;-81
2022/10/30 08:23:28;;;;;;;3.05;1.73;;;;;;;14.12;69.74;101171.38;5098572;28;20175;-84
2022/10/30 08:25:59;;;;;;;4.90;2.40;;;;;;;14.17;69.81;101172.06;5116275;28;20028;-83
2022/10/30 08:28:30;;;;;;;1.48;1.38;;;;;;;14.19;69.65;101174.66;5129957;28;20059;-82
2022/10/30 08:31:01;;;;;;;0.50;0.50;;;;;;;14.16;70.42;101173.00;5084980;29;20066;-82
2022/10/30 08:33:35;;;;;;;1.25;1.15;;;;;;;14.17;70.61;101177.34;5116389;28;20050;-83
2022/10/30 08:36:06;;;;;;;2.75;1.15;;;;;;;14.22;70.40;101174.53;5135954;28;20047;-81
2022/10/30 08:38:37;;;;;;;1.35;1.25;;;;;;;14.26;70.72;101167.38;5118531;28;20039;-83
2022/10/30 08:41:07;;;;;;;0.98;0.98;;;;;;;14.26;71.20;101165.63;5106398;29;20099;-83
2022/10/30 08:43:38;;;;;;;2.13;1.65;;;;;;;14.31;70.70;101173.38;5137182;28;20075;-85
2022/10/30 08:46:09;;;;;;;3.25;1.75;;;;;;;14.36;70.79;101168.78;5106281;28;20035;-83
2022/10/30 08:48:39;;;;;;;2.78;2.08;;;;;;;14.39;70.80;101166.03;5134231;28;20154;-82
2022/10/30 08:51:10;;;;;;;1.00;1.00;;;;;;;14.43;70.51;101167.63;5121931;28;20028;-83
2022/10/30 08:53:40;;;;;;;1.88;1.77;;;;;;;14.46;70.66;101167.53;5104850;29;20047;-83
2022/10/30 08:56:11;;;;;;;2.17;1.98;;;;;;;14.53;71.04;101169.94;5109811;29;20038;-84
2022/10/30 08:58:41;;;;;;;0.85;0.85;;;;;;;14.52;71.31;101160.31;5109530;29;20407;-81
2022/10/30 09:01:12;;;;;;;4.38;1.98;;;;;;;14.52;72.30;101155.03;5138305;28;20042;-81
2022/10/30 09:03:43;;;;;;;0.60;0.60;;;;;;;14.60;71.68;101158.25;5120822;29;20056;-83
2022/10/30 09:06:13;;;;;;;2.10;2.00;;;;;;;14.61;73.02;101149.41;5108708;28;20036;-84
2022/10/30 09:08:45;;;;;;;1.85;1.75;;;;;;;14.64;73.03;101144.88;5106379;29;20055;-83
2022/10/30 09:11:16;;;;;;;1.50;1.40;;;;;;;14.71;72.34;101132.34;5128581;28;20083;-83
2022/10/30 09:13:46;;;;;;;1.35;0.73;;;;;;;14.79;72.82;101132.91;5106487;29;20040;-82
2022/10/30 09:16:17;;;;;;;0.40;0.40;;;;;;;14.82;72.68;101131.91;5138435;28;20028;-83
2022/10/30 09:18:48;;;;;;;2.47;2.08;;;;;;;14.85;73.62;101130.94;5119588;28;20036;-82
2022/10/30 09:21:18;;;;;;;0.98;0.80;;;;;;;14.90;73.37;101124.56;5125996;29;20035;-82
2022/10/30 09:23:49;;;;;;;0.70;0.70;;;;;;;14.98;73.60;101126.91;5101755;28;20488;-80
2022/10/30 09:26:19;;;;;;;1.10;1.02;;;;;;;15.04;73.29;101131.97;5119619;28;20094;-84
2022/10/30 09:28:50;;;;;;;1.95;1.67;;;;;;;15.10;73.29;101128.22;5101033;28;20040;-82
2022/10/30 09:31:24;;;;;;;0.80;0.80;;;;;;;15.15;73.95;101131.53;5117776;28;20030;-84
2022/10/30 09:33:54;;;;;;;1.27;1.17;;;;;;;15.19;74.02;101138.44;5132235;28;20040;-80
2022/10/30 09:36:25;;;;;;;1.38;0.80;;;;;;;15.24;73.10;101136.44;5086020;29;20407;-81
2022/10/30 09:38:55;;;;;;;3.55;1.00;;;;;;;15.33;73.59;101135.19;5100405;29;20051;-83
2022/10/30 09:41:26;;;;;;;1.95;1.42;;;;;;;15.42;72.83;101137.47;5102225;29;20054;-83
2022/10/30 09:44:31;;;;;;;0.40;0.40;;;;;;;15.49;73.63;101137.25;5122003;28;20035;-89
2022/10/30 09:47:30;;;;;;;0.30;0.30;;;;;;;15.52;73.48;101134.47;5121209;28;20044;-84
2022/10/30 09:50:28;;;;;;;0.95;0.88;;;;;;;15.56;73.17;101134.28;5102177;29;20024;-84
2022/10/30 09:53:20;;;;;;;0.70;0.70;;;;;;;15.68;72.80;101130.25;5109054;29;20099;-83
2022/10/30 09:56:02;;;;;;;0.73;0.73;;;;;;;15.80;73.59;101133.31;5132627;28;20046;-84
2022/10/30 09:59:03;;;;;;;1.83;1.33;;;;;;;15.80;73.08;101130.66;5117042;28;20130;-83
2022/10/30 10:01:43;;;;;;;0.88;0.88;;;;;;;15.85;72.97;101128.72;5119800;29;20046;-86
2022/10/30 10:04:52;;;;;;;2.47;1.42;;;;;;;15.93;72.73;101126.59;5099114;29;20099;-84
2022/10/30 10:07:37;;;;;;;1.85;1.48;;;;;;;15.99;73.20;101121.03;5094351;29;20050;-84
2022/10/30 10:10:29;;;;;;;1.25;1.15;;;;;;;16.04;73.04;101126.13;5102659;29;20114;-84
2022/10/30 10:13:01;;;;;;;0.50;0.50;;;;;;;16.10;73.29;101123.22;5114858;29;20036;-82
2022/10/30 10:15:45;;;;;;;2.60;1.63;;;;;;;16.15;73.67;101120.38;5115507;28;20063;-83
2022/10/30 10:18:28;;;;;;;2.88;1.15;;;;;;;16.23;73.04;101123.56;5104043;29;20047;-85
2022/10/30 10:21:09;;;;;;;2.47;2.10;;;;;;;16.28;73.25;101116.25;5119755;28;20028;-83
2022/10/30 10:23:51;;;;;;;0.80;0.80;;;;;;;16.42;73.87;101117.41;5103379;29;20051;-86
2022/10/30 10:26:31;;;;;;;0.65;0.65;;;;;;;16.52;73.32;101118.72;5106348;29;20046;-83
2022/10/30 10:29:36;;;;;;;1.17;1.08;;;;;;;16.53;73.84;101115.13;5087749;28;20584;-83
2022/10/30 10:32:25;;;;;;;0.80;0.57;;;;;;;16.60;73.03;101113.94;5039974;28;20067;-84
2022/10/30 10:35:14;;;;;;;2.10;1.77;;;;;;;16.68;72.89;101114.44;5118954;29;20439;-84
2022/10/30 10:38:03;;;;;;;1.65;1.55;;;;;;;16.75;73.17;101109.72;5100121;28;20078;-84
2022/10/30 10:40:56;;;;;;;0.60;0.60;;;;;;;16.77;72.82;101107.84;5116809;29;20036;-83
2022/10/30 10:44:05;;;;;;;1.58;1.48;;;;;;;16.84;72.62;101108.41;5089800;29;20039;-83
2022/10/30 10:46:56;;;;;;;0.50;0.50;;;;;;;16.91;72.12;101106.34;5118841;28;20514;-84
2022/10/30 10:49:46;;;;;;;4.40;1.30;;;;;;;17.03;71.60;101113.72;5119562;28;20043;-85
2022/10/30 10:52:32;;;;;;;14.35;1.88;;;;;;;17.10;71.41;101114.28;5102225;29;20826;-85
2022/10/30 10:55:15;;;;;;;3.38;1.38;;;;;;;17.11;71.53;101113.34;5090067;29;20063;-85
2022/10/30 10:57:46;;;;;;;0.90;0.90;;;;;;;17.17;71.22;101120.16;5102467;29;20039;-87
2022/10/30 11:00:22;;;;;;;0.63;0.63;;;;;;;17.21;71.61;101112.00;5107142;29;20020;-86
2022/10/30 11:02:59;;;;;;;1.40;1.30;;;;;;;17.34;70.38;101112.25;5116984;28;20036;-85
2022/10/30 11:05:38;;;;;;;2.63;2.15;;;;;;;17.33;71.27;101115.84;5120672;28;20054;-86
2022/10/30 11:08:26;;;;;;;0.45;0.45;;;;;;;17.40;71.14;101101.31;5114683;28;20036;-86
2022/10/30 11:11:04;;;;;;;2.25;1.75;;;;;;;17.43;71.19;101097.66;5132845;28;20031;-83
2022/10/30 11:13:41;;;;;;;0.55;0.55;;;;;;;17.50;70.76;101100.88;5101833;28;20122;-83
2022/10/30 11:16:50;;;;;;;5.25;2.20;;;;;;;17.59;70.30;101105.72;5124460;28;20039;-87
2022/10/30 11:19:24;;;;;;;7.07;1.90;;;;;;;17.67;69.65;101098.22;5108982;29;20039;-85
2022/10/30 11:21:56;;;;;;;0.77;0.75;;;;;;;17.71;70.17;101098.94;5123302;28;20103;-84
2022/10/30 11:24:33;;;;;;;1.13;1.08;;;;;;;17.77;70.14;101082.69;5136579;28;20253;-82
2022/10/30 11:27:24;;;;;;;1.23;1.08;;;;;;;17.82;70.40;101091.25;5119804;28;20658;-84
2022/10/30 11:30:03;;;;;;;0.85;0.85;;;;;;;17.87;70.36;101083.94;5120509;28;20031;-85
2022/10/30 11:32:34;;;;;;;0.73;0.60;;;;;;;17.89;70.43;101071.41;5075471;29;20050;-82
2022/10/30 11:35:16;;;;;;;2.83;1.50;;;;;;;18.07;69.67;101074.94;5106221;29;20027;-84
2022/10/30 11:38:10;;;;;;;1.55;1.13;;;;;;;18.08;70.12;101076.66;5131869;28;20043;-85
2022/10/30 11:40:50;;;;;;;4.22;0.95;;;;;;;18.18;70.03;101077.03;5100930;29;20040;-84
2022/10/30 11:43:24;;;;;;;0.80;0.80;;;;;;;18.19;70.28;101078.75;5104920;29;20071;-84
2022/10/30 11:45:55;;;;;;;1.35;1.25;;;;;;;18.28;70.21;101073.88;5133146;28;20499;-82
2022/10/30 11:48:29;;;;;;;5.57;3.20;;;;;;;18.33;70.49;101075.34;5107690;29;20107;-82
2022/10/30 11:51:04;;;;;;;1.35;1.25;;;;;;;18.41;70.18;101077.56;5140091;28;20032;-83
2022/10/30 11:54:01;;;;;;;0.70;0.70;;;;;;;18.46;70.27;101069.34;5106338;28;20470;-86
2022/10/30 11:56:36;;;;;;;1.95;1.40;;;;;;;18.49;70.18;101075.34;5115699;28;20050;-86
2022/10/30 11:59:17;;;;;;;0.52;0.52;;;;;;;18.59;70.26;101072.19;5106789;29;20570;-87
2022/10/30 12:02:23;;;;;;;1.85;1.02;;;;;;;18.71;69.50;101074.19;5141203;28;20063;-87
2022/10/30 12:05:00;;;;;;;1.45;0.95;;;;;;;18.78;69.63;101088.84;5105629;28;20043;-84